Aeroporto :
LOGIN :

Iscrizione | Disclaimer

   EN    FR    IT 

 










Sommario :    VFR   VFR Marginale   IFR   IFR Intensivo   IFR Molto Intensivo
Visibilità : 
Base nubi : 
>= 8 km
>= 3000ft
5 / 8 km
1000 / 3000 ft
1500m / 5 km
500 / 1000 ft
800 / 1500m
200 / 500 ft
< 800m
< 200 ft
Simboli :   Temporali  Nebbia  Neve Forte  Precipitazioni Forti  Vento > 20 kt
SIGMETs :   Varie  Temporali  Ghiacco  Turbolenza  Onda orograficha  Ceneri Vulcaniche






- Altitudine del aeroporto : -15 ft
- Codice IATA : RTM


EHRD - Rotterdam Zestienhoven

ULTIMO METAR :
  • 221455Z AUTO 13008KT 090V170 9999 NCD 10/05 Q1001 NOSIG

METARs OBSOLETI :
  • 221425Z AUTO 14010KT 100V160 9999 NSC 10/06 Q1002 NOSIG
  • 221355Z AUTO 15009KT 110V170 9999 NSC 11/06 Q1002 NOSIG
  • 221325Z AUTO 15010KT 110V180 9999 NSC 10/06 Q1002 NOSIG
  • 221255Z AUTO 16009KT 120V190 9999 NSC 10/06 Q1002 NOSIG

TAF TAF EHRD
Valido dal 22 a 12 ore il 23 a 18 ore UTC


221109Z 2212/2318 16013KT CAVOK
BECMG 2214/2217 13011KT
BECMG 2222/2301 10013KT



MetMap, La meteo Aeronautica in un colpo d'occhio ! - Copyright ORBIFLY Dicembre 2007 - Disclaimer

ORBIFLY MET'MAP TEAM :

Programmazione e sviluppo : Alexandra Zaïnal
Concezione e sviluppo : Baudouin d'Aumeries
Co-Programmazione e sviluppo : Marc-Olivier Méhu
Supporto tecnico e logistico : Manuel Goepfert
Aiuto per la traduzione : Arnaldo La Scala

Contatto : metmap@orbifly.com




FONTI E CREDITI :

   NOAA